KMGW

Morgantown Municipal-Walter L Bill Hart Field Airport

Morgantown, West Virginia, USA
KMGW 181735Z 1818/1918 VRB03KT P6SM SCT030 FM182000 VRB03KT P6SM SKC
Issued Valid From Valid To
Dec-18 @ 17:35 UTC
(6 hours ago)
Dec-18 @ 18:00 UTC
(5 hours ago)
Dec-19 @ 18:00 UTC
(in 19 hours)
Expired Click to View Dec-18 @ 18:00 to Dec-18 @ 20:00
KMGW 181735Z 1818/1918 VRB03KT P6SM SCT030
Wind Visibility Clouds
Variable at 3 knots Greater than 6 miles
  • Scattered at 3,000' AGL
From Dec-18 @ 20:00 to Dec-19 @ 18:00
FM182000 VRB03KT P6SM SKC
Wind Visibility Clouds
Variable at 3 knots Greater than 6 miles
  • Clear skies
KMGW 181735Z 1818/1918 VRB03KT P6SM SCT030 FM182000 VRB03KT P6SM SKC
Issued Dec-18 @ 17:35 UTC
(6 hours ago)
Valid From Dec-18 @ 18:00 UTC
(5 hours ago)
Valid To Dec-19 @ 18:00 UTC
(in 19 hours)
Dec-18 @ 18:00 - Dec-18 @ 20:00
Wind Visibility
Variable at 3 knots Greater than 6 miles
Clouds
  • Scattered at 3,000' AGL
From Dec-18 @ 20:00 - Dec-19 @ 18:00
Wind Visibility
Variable at 3 knots Greater than 6 miles
Clouds
  • Clear skies